Time;durP1;ratioP1;P1;durP2;ratioP2;P2;SDS_P1;SDS_P2;PMS_P1;PMS_P2;Temp;Humidity;BMP_temperature;BMP_pressure;BME280_temperature;BME280_humidity;BME280_pressure;Samples;Min_cycle;Max_cycle;Signal;HPM_P1;HPM_P2
2022/02/16 00:02:02;;;;;;;37.95;18.58;;;;;;;3.41;63.66;94237.50;5062382;28;20020;-72
2022/02/16 00:04:28;;;;;;;48.53;21.50;;;;;;;3.33;64.15;94227.47;5062345;28;20036;-73
2022/02/16 00:06:53;;;;;;;40.17;21.30;;;;;;;3.22;65.04;94210.84;5062310;28;20025;-73
2022/02/16 00:09:18;;;;;;;42.88;21.67;;;;;;;3.00;65.89;94218.91;5062498;28;20024;-73
2022/02/16 00:11:44;;;;;;;35.72;18.67;;;;;;;2.96;66.22;94222.31;5062117;28;20037;-73
2022/02/16 00:14:09;;;;;;;43.38;19.13;;;;;;;2.93;65.81;94228.91;5062281;28;20024;-73
2022/02/16 00:16:35;;;;;;;34.85;17.85;;;;;;;2.91;66.02;94228.34;5062381;28;20028;-73
2022/02/16 00:19:00;;;;;;;38.05;17.75;;;;;;;2.90;66.17;94229.41;5062094;28;20096;-73
2022/02/16 00:21:26;;;;;;;47.72;19.33;;;;;;;2.97;66.14;94224.69;5062629;28;20025;-73
2022/02/16 00:23:51;;;;;;;38.97;19.75;;;;;;;3.01;65.99;94222.31;5066303;28;20099;-73
2022/02/16 00:26:17;;;;;;;44.67;21.85;;;;;;;3.03;66.08;94204.44;5066403;28;20013;-73
2022/02/16 00:28:42;;;;;;;38.08;20.30;;;;;;;3.07;65.88;94209.97;5066427;28;20024;-73
2022/02/16 00:31:07;;;;;;;39.90;21.15;;;;;;;3.08;65.88;94206.31;5066509;28;20242;-73
2022/02/16 00:33:33;;;;;;;40.72;19.95;;;;;;;3.12;65.63;94213.44;5066317;28;20016;-73
2022/02/16 00:35:58;;;;;;;47.00;21.17;;;;;;;3.21;65.48;94205.81;5066165;28;20091;-73
2022/02/16 00:38:24;;;;;;;39.08;19.98;;;;;;;3.24;64.98;94200.06;5066111;28;20017;-73
2022/02/16 00:40:49;;;;;;;41.22;20.38;;;;;;;3.30;65.05;94196.38;5066169;28;20039;-73
2022/02/16 00:43:15;;;;;;;34.78;18.92;;;;;;;3.36;64.43;94197.97;5065938;28;20021;-73
2022/02/16 00:45:40;;;;;;;37.42;19.00;;;;;;;3.32;64.13;94201.41;5065982;28;20188;-73
2022/02/16 00:48:06;;;;;;;38.88;19.50;;;;;;;3.22;65.16;94210.06;5066079;28;20127;-73
2022/02/16 00:50:32;;;;;;;37.95;18.38;;;;;;;3.30;64.58;94212.19;5065859;28;20094;-73
2022/02/16 00:52:57;;;;;;;36.45;16.98;;;;;;;3.30;64.01;94199.03;5065952;28;20253;-73
2022/02/16 00:55:23;;;;;;;28.67;15.80;;;;;;;3.31;63.78;94197.16;5065821;28;20319;-73
2022/02/16 00:57:50;;;;;;;28.38;15.50;;;;;;;3.28;63.81;94193.22;5065892;28;20127;-73
2022/02/16 01:00:16;;;;;;;30.38;15.70;;;;;;;3.32;63.46;94196.91;5065812;28;20029;-73
2022/02/16 01:02:41;;;;;;;33.28;15.93;;;;;;;3.30;63.54;94183.22;5065541;28;20059;-73
2022/02/16 01:05:07;;;;;;;37.92;17.23;;;;;;;3.24;63.87;94200.06;5064571;28;20033;-73
2022/02/16 01:07:33;;;;;;;35.83;17.70;;;;;;;3.07;64.76;94199.44;5065706;28;20036;-72
2022/02/16 01:09:58;;;;;;;39.03;17.77;;;;;;;2.79;65.66;94183.81;5065552;28;20036;-73
2022/02/16 01:12:24;;;;;;;34.70;18.33;;;;;;;2.52;67.27;94197.06;5065370;28;20327;-73
2022/02/16 01:14:49;;;;;;;37.70;19.27;;;;;;;2.47;67.76;94197.03;5065497;28;20031;-73
2022/02/16 01:17:15;;;;;;;33.97;17.48;;;;;;;2.49;67.59;94200.22;5065374;28;20075;-73
2022/02/16 01:19:40;;;;;;;40.53;18.17;;;;;;;2.50;67.55;94195.72;5065642;28;20049;-72
2022/02/16 01:22:06;;;;;;;39.58;19.80;;;;;;;2.47;67.88;94191.00;5065326;28;20051;-72
2022/02/16 01:24:32;;;;;;;44.55;20.15;;;;;;;2.52;67.89;94178.63;5065266;28;20106;-72
2022/02/16 01:26:57;;;;;;;41.55;21.83;;;;;;;2.63;67.56;94187.41;5065357;28;20028;-72
2022/02/16 01:29:23;;;;;;;41.58;20.05;;;;;;;2.71;67.12;94171.13;5065217;28;20095;-72
2022/02/16 01:31:50;;;;;;;46.65;17.75;;;;;;;2.83;66.24;94176.19;5065093;28;20032;-72
2022/02/16 01:34:16;;;;;;;38.03;17.70;;;;;;;2.86;65.78;94166.97;5064138;28;20025;-72
2022/02/16 01:36:41;;;;;;;28.67;14.93;;;;;;;2.91;64.74;94164.34;5065256;28;20061;-73
2022/02/16 01:39:07;;;;;;;32.50;15.18;;;;;;;2.85;64.83;94163.56;5065199;28;20031;-72
2022/02/16 01:41:33;;;;;;;40.25;17.50;;;;;;;2.82;65.25;94161.44;5064842;28;20075;-73
2022/02/16 01:43:59;;;;;;;37.53;18.88;;;;;;;2.86;65.29;94148.56;5064931;28;20037;-73
2022/02/16 01:46:24;;;;;;;49.80;18.10;;;;;;;2.90;65.50;94158.31;5064995;28;20028;-73
2022/02/16 01:48:50;;;;;;;34.08;17.27;;;;;;;2.87;65.67;94148.31;5064917;28;20021;-73
2022/02/16 01:51:15;;;;;;;36.25;16.85;;;;;;;2.91;65.24;94154.63;5064765;28;20208;-73
2022/02/16 01:53:41;;;;;;;33.97;16.30;;;;;;;2.96;65.06;94152.00;5064926;28;20028;-73
2022/02/16 01:56:07;;;;;;;32.47;16.80;;;;;;;3.00;64.90;94142.53;5064785;28;20051;-73
2022/02/16 01:58:35;;;;;;;42.92;18.25;;;;;;;2.96;64.97;94138.84;5064763;28;20031;-73
2022/02/16 02:01:03;;;;;;;36.60;19.17;;;;;;;3.00;64.83;94133.84;5064715;28;20063;-73
2022/02/16 02:03:29;;;;;;;31.83;14.60;;;;;;;3.05;64.55;94133.84;5064767;28;20028;-73
2022/02/16 02:05:55;;;;;;;29.50;15.50;;;;;;;2.98;64.55;94120.16;5064613;28;20127;-73
2022/02/16 02:08:21;;;;;;;27.50;14.82;;;;;;;2.98;64.41;94118.31;5064743;28;20035;-73
2022/02/16 02:10:50;;;;;;;27.05;15.07;;;;;;;2.96;64.78;94123.03;5064487;28;20361;-73
2022/02/16 02:13:17;;;;;;;31.88;14.82;;;;;;;2.97;64.64;94127.28;5064456;28;20035;-73
2022/02/16 02:15:42;;;;;;;31.30;15.45;;;;;;;2.98;64.80;94122.78;5064558;28;20070;-73
2022/02/16 02:18:11;;;;;;;30.35;14.52;;;;;;;2.97;65.08;94118.56;5064545;28;20048;-73
2022/02/16 02:20:40;;;;;;;31.88;13.82;;;;;;;2.99;64.39;94119.91;5064335;28;20020;-73
2022/02/16 02:23:06;;;;;;;32.78;16.00;;;;;;;3.01;64.60;94132.78;5064271;28;20095;-73
2022/02/16 02:25:49;;;;;;;27.48;13.02;;;;;;;2.98;64.47;94134.09;5064228;28;20281;-73
2022/02/16 02:28:16;;;;;;;25.50;13.15;;;;;;;2.90;64.94;94131.19;5064496;28;20024;-73
2022/02/16 02:30:42;;;;;;;31.38;15.73;;;;;;;2.82;65.55;94124.56;5064275;28;20045;-73
2022/02/16 02:33:07;;;;;;;32.65;16.08;;;;;;;2.82;65.66;94124.56;5064174;28;20027;-73
2022/02/16 02:35:33;;;;;;;37.50;17.40;;;;;;;2.80;65.70;94110.88;5064099;28;20028;-72
2022/02/16 02:37:58;;;;;;;35.85;17.98;;;;;;;2.73;66.06;94115.59;5063955;28;20309;-72
2022/02/16 02:40:24;;;;;;;32.92;17.02;;;;;;;2.63;66.64;94123.47;5063854;28;20028;-73
2022/02/16 02:42:49;;;;;;;39.70;19.38;;;;;;;2.56;67.17;94131.56;5062720;28;20090;-73
2022/02/16 02:45:15;;;;;;;40.20;19.60;;;;;;;2.51;67.36;94129.69;5064126;28;20021;-73
2022/02/16 02:47:41;;;;;;;48.05;21.95;;;;;;;2.54;67.89;94133.66;5064093;28;20087;-73
2022/02/16 02:50:08;;;;;;;41.97;19.42;;;;;;;2.56;67.77;94134.97;5063769;28;20027;-73
2022/02/16 02:52:36;;;;;;;43.15;22.38;;;;;;;2.59;67.22;94138.97;5063564;28;20033;-73
2022/02/16 02:55:06;;;;;;;38.28;20.33;;;;;;;2.58;67.39;94145.25;5063634;28;20024;-72
2022/02/16 02:57:32;;;;;;;40.88;20.38;;;;;;;2.67;67.25;94148.22;5063686;28;20259;-73
2022/02/16 02:59:57;;;;;;;43.58;20.73;;;;;;;2.66;67.16;94147.41;5063589;28;20028;-73
2022/02/16 03:02:26;;;;;;;44.45;21.65;;;;;;;2.65;67.06;94130.03;5063406;28;20020;-73
2022/02/16 03:04:52;;;;;;;44.05;22.27;;;;;;;2.60;67.22;94137.91;5063401;28;20041;-73
2022/02/16 03:07:17;;;;;;;41.85;20.73;;;;;;;2.59;67.58;94134.47;5063703;28;20032;-72
2022/02/16 03:09:42;;;;;;;54.33;22.58;;;;;;;2.60;67.78;94128.16;5063504;28;20013;-72
2022/02/16 03:12:08;;;;;;;43.80;20.35;;;;;;;2.60;67.63;94130.00;5063256;28;20361;-73
2022/02/16 03:14:35;;;;;;;48.38;21.85;;;;;;;2.66;67.39;94138.72;5063330;28;20215;-72
2022/02/16 03:17:01;;;;;;;43.17;22.65;;;;;;;2.72;67.15;94132.44;5063270;28;20021;-73
2022/02/16 03:19:26;;;;;;;40.83;21.25;;;;;;;2.77;66.95;94135.88;5063329;28;20031;-73
2022/02/16 03:21:51;;;;;;;46.78;22.10;;;;;;;2.86;66.76;94133.53;5063229;28;20020;-73
2022/02/16 03:24:17;;;;;;;44.53;21.55;;;;;;;2.92;66.43;94137.78;5062880;28;20024;-72
2022/02/16 03:26:42;;;;;;;43.08;20.52;;;;;;;2.67;66.82;94151.63;5063258;28;20254;-73
2022/02/16 03:29:08;;;;;;;34.20;16.27;;;;;;;2.51;67.50;94142.06;5063070;28;20017;-73
2022/02/16 03:31:33;;;;;;;47.45;21.30;;;;;;;2.52;67.85;94135.75;5062847;28;20021;-72
2022/02/16 03:33:59;;;;;;;46.20;21.20;;;;;;;2.57;67.91;94130.53;5063036;28;20051;-73
2022/02/16 03:36:26;;;;;;;41.20;20.10;;;;;;;2.63;68.11;94131.34;5062977;28;20234;-73
2022/02/16 03:38:52;;;;;;;44.17;21.20;;;;;;;2.71;67.61;94144.81;5062744;28;20028;-73
2022/02/16 03:41:18;;;;;;;41.72;20.55;;;;;;;2.72;67.74;94156.13;5062874;28;20025;-72
2022/02/16 03:43:43;;;;;;;40.63;19.90;;;;;;;2.69;67.31;94160.06;5062873;28;20098;-73
2022/02/16 03:46:09;;;;;;;44.85;21.48;;;;;;;2.63;67.57;94150.56;5062907;28;20016;-73
2022/02/16 03:48:34;;;;;;;38.17;19.90;;;;;;;2.68;67.75;94141.88;5062815;28;20040;-73
2022/02/16 03:51:00;;;;;;;42.85;21.60;;;;;;;2.72;67.58;94140.31;5062866;28;20050;-73
2022/02/16 03:53:25;;;;;;;45.35;20.10;;;;;;;2.79;67.51;94140.91;5062565;28;20230;-73
2022/02/16 03:55:51;;;;;;;38.17;21.13;;;;;;;2.87;67.18;94131.69;5062521;28;20326;-73
2022/02/16 03:58:16;;;;;;;35.72;19.50;;;;;;;3.00;66.94;94141.75;5062468;28;20017;-73
2022/02/16 04:00:42;;;;;;;39.25;18.00;;;;;;;3.09;66.79;94148.09;5062695;28;20041;-73
2022/02/16 04:03:09;;;;;;;31.80;18.13;;;;;;;3.18;66.50;94137.88;5062417;28;20101;-72
2022/02/16 04:05:35;;;;;;;32.53;17.33;;;;;;;3.21;65.56;94126.78;5062428;28;20024;-72
2022/02/16 04:08:01;;;;;;;41.42;18.10;;;;;;;3.26;65.60;94124.19;5062347;28;20160;-72
2022/02/16 04:10:26;;;;;;;32.42;17.08;;;;;;;3.27;65.82;94125.75;5062285;28;20088;-73
2022/02/16 04:12:52;;;;;;;34.28;17.63;;;;;;;3.32;65.98;94120.50;5062082;28;20048;-73
2022/02/16 04:15:17;;;;;;;32.58;17.52;;;;;;;3.37;65.89;94125.78;5062453;28;20046;-73
2022/02/16 04:17:43;;;;;;;41.97;20.30;;;;;;;3.46;65.71;94117.34;5062485;28;20017;-73
2022/02/16 04:20:10;;;;;;;38.38;19.13;;;;;;;3.54;65.91;94106.28;5062347;28;20123;-73
2022/02/16 04:22:43;;;;;;;35.97;17.17;;;;;;;3.61;65.46;94109.47;5060892;28;20017;-72
2022/02/16 04:25:10;;;;;;;35.05;17.23;;;;;;;3.68;65.43;94098.66;5062104;28;20036;-73
2022/02/16 04:27:35;;;;;;;36.47;16.90;;;;;;;3.73;65.26;94104.72;5062594;28;20029;-73
2022/02/16 04:30:01;;;;;;;32.65;16.17;;;;;;;3.77;65.06;94100.50;5062525;28;20248;-73
2022/02/16 04:32:26;;;;;;;37.80;17.10;;;;;;;3.78;64.62;94103.94;5062170;28;20075;-73
2022/02/16 04:34:52;;;;;;;35.42;16.77;;;;;;;3.79;64.41;94092.34;5062122;28;20025;-71
2022/02/16 04:37:17;;;;;;;36.17;17.42;;;;;;;3.81;64.38;94098.94;5062283;28;20088;-72
2022/02/16 04:39:43;;;;;;;39.17;18.90;;;;;;;3.81;63.50;94093.66;5062133;28;20023;-72
2022/02/16 04:42:08;;;;;;;38.45;19.98;;;;;;;3.78;63.45;94098.66;5062185;28;20278;-72
2022/02/16 04:44:34;;;;;;;34.25;18.67;;;;;;;3.73;63.58;94091.53;5062048;28;20223;-72
2022/02/16 04:46:59;;;;;;;40.35;18.55;;;;;;;3.69;63.83;94101.03;5062068;28;20167;-72
2022/02/16 04:49:25;;;;;;;35.08;19.13;;;;;;;3.68;64.20;94102.06;5061898;28;20021;-72
2022/02/16 04:51:50;;;;;;;37.75;17.75;;;;;;;3.74;64.09;94108.94;5061807;28;20104;-72
2022/02/16 04:54:16;;;;;;;34.80;17.65;;;;;;;3.69;64.09;94108.94;5062273;28;20013;-72
2022/02/16 04:56:41;;;;;;;36.40;18.38;;;;;;;3.75;64.13;94099.97;5061973;28;20376;-72
2022/02/16 04:59:07;;;;;;;33.65;17.67;;;;;;;3.75;64.14;94094.72;5062007;28;20020;-72
2022/02/16 05:01:32;;;;;;;34.38;16.98;;;;;;;3.80;63.84;94091.28;5061753;28;20092;-72
2022/02/16 05:03:58;;;;;;;36.15;17.27;;;;;;;3.75;64.29;94094.72;5061633;28;20021;-72
2022/02/16 05:06:23;;;;;;;38.03;17.50;;;;;;;3.79;64.18;94103.69;5061865;28;20032;-72
2022/02/16 05:08:49;;;;;;;53.17;20.08;;;;;;;3.77;64.03;94108.41;5062964;28;20028;-72
2022/02/16 05:11:15;;;;;;;54.28;22.45;;;;;;;3.77;64.10;94110.28;5065753;28;20017;-72
2022/02/16 05:13:40;;;;;;;41.28;19.13;;;;;;;3.79;64.31;94098.41;5065607;28;20024;-72
2022/02/16 05:16:06;;;;;;;53.03;21.35;;;;;;;3.77;63.96;94092.59;5065151;28;20017;-72
2022/02/16 05:18:33;;;;;;;52.78;21.30;;;;;;;3.80;64.05;94084.16;5065614;28;20029;-72
2022/02/16 05:20:59;;;;;;;57.15;22.85;;;;;;;3.85;64.04;94093.13;5065539;28;20255;-72
2022/02/16 05:23:25;;;;;;;52.25;22.77;;;;;;;3.85;64.22;94093.91;5065346;28;20211;-72
2022/02/16 05:25:53;;;;;;;50.17;21.77;;;;;;;3.87;64.08;94091.00;5065407;28;20044;-72
2022/02/16 05:28:18;;;;;;;44.20;20.58;;;;;;;3.88;64.12;94090.75;5065406;28;20301;-72
2022/02/16 05:30:43;;;;;;;46.70;21.20;;;;;;;3.91;64.16;94084.94;5064883;28;20025;-72
2022/02/16 05:33:10;;;;;;;57.97;22.02;;;;;;;3.94;63.92;94096.81;5065217;28;20035;-72
2022/02/16 05:35:35;;;;;;;50.03;20.83;;;;;;;3.93;63.74;94097.84;5065169;28;20025;-72
2022/02/16 05:38:01;;;;;;;47.85;20.27;;;;;;;3.88;63.83;94103.94;5065152;28;20013;-72
2022/02/16 05:40:26;;;;;;;49.45;21.88;;;;;;;3.91;64.04;94110.50;5065050;28;20049;-72
2022/02/16 05:42:53;;;;;;;48.08;21.35;;;;;;;3.88;63.90;94103.94;5065006;28;20023;-72
2022/02/16 05:45:19;;;;;;;48.75;21.55;;;;;;;3.88;63.91;94108.41;5065063;28;20222;-72
2022/02/16 05:47:44;;;;;;;41.80;20.55;;;;;;;3.93;64.05;94109.22;5065177;28;20029;-72
2022/02/16 05:50:10;;;;;;;49.33;21.20;;;;;;;3.99;63.97;94110.78;5064763;28;20033;-73
2022/02/16 05:52:36;;;;;;;45.30;20.63;;;;;;;3.96;64.21;94110.53;5064945;28;20025;-73
2022/02/16 05:55:02;;;;;;;41.60;19.77;;;;;;;4.01;63.99;94106.03;5064628;28;20390;-73
2022/02/16 05:57:29;;;;;;;47.45;19.77;;;;;;;4.06;64.13;94101.81;5064918;28;20226;-73
2022/02/16 05:59:54;;;;;;;43.00;19.92;;;;;;;4.11;63.99;94092.06;5064840;28;20075;-73
2022/02/16 06:02:20;;;;;;;49.45;21.52;;;;;;;4.14;64.06;94099.41;5064828;28;20029;-73
2022/02/16 06:04:45;;;;;;;39.03;20.77;;;;;;;4.19;63.85;94101.25;5064303;28;20024;-72
2022/02/16 06:07:10;;;;;;;39.92;20.40;;;;;;;4.21;63.98;94102.59;5064458;28;20550;-72
2022/02/16 06:09:36;;;;;;;50.30;21.52;;;;;;;4.23;63.48;94102.31;5064748;28;20025;-72
2022/02/16 06:12:01;;;;;;;48.58;22.92;;;;;;;4.22;63.54;94100.72;5064460;28;20045;-72
2022/02/16 06:14:27;;;;;;;50.25;21.55;;;;;;;4.23;63.65;94097.03;5064475;28;20250;-72
2022/02/16 06:16:52;;;;;;;49.88;23.58;;;;;;;4.26;63.57;94104.41;5064381;28;20017;-72
2022/02/16 06:19:18;;;;;;;62.45;26.45;;;;;;;4.26;63.60;94104.41;5064170;28;20036;-72
2022/02/16 06:21:44;;;;;;;67.88;25.90;;;;;;;4.22;63.21;94109.44;5064416;28;20084;-72
2022/02/16 06:24:10;;;;;;;49.33;20.75;;;;;;;4.26;62.79;94125.53;5064265;28;20025;-72
2022/02/16 06:26:35;;;;;;;42.20;21.75;;;;;;;4.12;62.83;94112.09;5064081;28;20358;-72
2022/02/16 06:29:01;;;;;;;46.58;22.17;;;;;;;4.15;63.47;94124.75;5063851;28;20251;-72
2022/02/16 06:31:27;;;;;;;46.53;21.25;;;;;;;4.00;62.89;94124.75;5064032;28;20029;-72
2022/02/16 06:33:52;;;;;;;42.13;20.05;;;;;;;4.00;63.49;94122.91;5064080;28;20063;-72
2022/02/16 06:36:18;;;;;;;39.05;20.45;;;;;;;4.07;63.81;94116.56;5064023;28;20025;-71
2022/02/16 06:38:44;;;;;;;43.38;20.95;;;;;;;4.14;63.21;94127.66;5063979;28;20036;-71
2022/02/16 06:41:09;;;;;;;45.60;21.55;;;;;;;4.20;63.29;94130.00;5063878;28;20093;-71
2022/02/16 06:43:35;;;;;;;48.50;22.33;;;;;;;4.33;62.79;94126.03;5063876;28;20024;-71
2022/02/16 06:46:00;;;;;;;47.03;23.55;;;;;;;4.46;62.70;94124.69;5063749;28;20028;-71
2022/02/16 06:48:26;;;;;;;52.90;23.25;;;;;;;4.56;62.07;94129.94;5063455;28;20021;-71
2022/02/16 06:50:51;;;;;;;45.88;21.05;;;;;;;4.61;61.86;94121.22;5063916;28;20021;-71
2022/02/16 06:53:17;;;;;;;62.10;24.02;;;;;;;4.65;61.90;94122.25;5063632;28;20311;-72
2022/02/16 06:55:42;;;;;;;52.30;23.77;;;;;;;4.70;61.62;94116.16;5063514;28;20020;-71
2022/02/16 06:58:08;;;;;;;54.30;23.90;;;;;;;4.71;61.15;94104.56;5063294;28;20084;-71
2022/02/16 07:00:34;;;;;;;49.45;24.23;;;;;;;4.74;61.25;94117.22;5063379;28;20043;-71
2022/02/16 07:02:59;;;;;;;45.63;23.42;;;;;;;4.79;60.93;94115.34;5062178;28;20025;-72
2022/02/16 07:05:24;;;;;;;55.25;23.35;;;;;;;4.85;60.94;94110.06;5062646;28;20091;-71
2022/02/16 07:07:50;;;;;;;60.97;25.60;;;;;;;4.91;61.22;94115.03;5063535;28;20192;-71
2022/02/16 07:10:15;;;;;;;54.40;26.58;;;;;;;5.01;61.40;94109.72;5063069;28;20029;-72
2022/02/16 07:12:41;;;;;;;44.72;24.50;;;;;;;4.97;61.11;94116.59;5063100;28;20052;-71
2022/02/16 07:15:13;;;;;;;55.85;26.27;;;;;;;5.01;60.35;94104.44;5062871;28;20021;-72
2022/02/16 07:17:41;;;;;;;;;;;;;;;5.07;59.95;94105.19;5063131;28;20110;-72
2022/02/16 07:20:12;;;;;;;47.67;23.80;;;;;;;5.08;60.03;94100.69;5062762;28;19905;-71
2022/02/16 07:22:42;;;;;;;57.83;27.02;;;;;;;5.22;60.20;94109.59;5062811;28;20021;-72
2022/02/16 07:25:08;;;;;;;59.92;25.23;;;;;;;5.33;59.64;94110.34;5062836;28;20335;-72
2022/02/16 07:27:34;;;;;;;61.20;25.77;;;;;;;5.39;59.72;94109.25;5063092;28;20143;-72
2022/02/16 07:29:59;;;;;;;55.33;26.73;;;;;;;5.55;58.78;94104.66;5062878;28;20041;-72
2022/02/16 07:32:24;;;;;;;53.25;26.65;;;;;;;5.55;58.79;94108.06;5062203;28;20215;-71
2022/02/16 07:34:50;;;;;;;49.72;24.80;;;;;;;5.60;58.91;94115.19;5063112;28;20100;-72
2022/02/16 07:37:15;;;;;;;60.00;24.95;;;;;;;5.68;58.43;94111.16;5062910;28;20029;-71
2022/02/16 07:39:41;;;;;;;54.38;26.25;;;;;;;5.66;58.55;94114.09;5062775;28;20377;-72
2022/02/16 07:42:06;;;;;;;53.10;25.50;;;;;;;5.66;58.52;94102.72;5062743;28;20307;-78
2022/02/16 07:44:32;;;;;;;57.83;27.73;;;;;;;5.58;59.27;94112.03;5062316;28;20227;-71
2022/02/16 07:46:58;;;;;;;60.38;25.83;;;;;;;5.63;59.33;94104.06;5062823;28;20032;-73
2022/02/16 07:49:23;;;;;;;55.13;26.75;;;;;;;5.52;60.00;94092.00;5062720;28;20338;-72
2022/02/16 07:51:48;;;;;;;56.00;27.55;;;;;;;5.69;59.95;94105.59;5062782;28;20219;-71
2022/02/16 07:54:14;;;;;;;59.78;26.17;;;;;;;5.83;59.23;94095.19;5062586;28;20028;-72
2022/02/16 07:56:39;;;;;;;67.15;27.33;;;;;;;5.89;59.05;94101.22;5062528;28;20035;-71
2022/02/16 07:59:05;;;;;;;73.20;26.70;;;;;;;5.79;59.14;94096.81;5062569;28;20028;-72
2022/02/16 08:01:30;;;;;;;63.47;27.20;;;;;;;5.76;59.28;94092.88;5062413;28;20048;-72
2022/02/16 08:04:15;;;;;;;47.05;24.58;;;;;;;5.78;58.34;94098.66;5062073;28;20084;-72
2022/02/16 08:06:44;;;;;;;55.78;23.85;;;;;;;5.80;58.25;94093.88;5062341;28;20025;-74
2022/02/16 08:09:10;;;;;;;54.25;24.42;;;;;;;5.86;58.03;94081.38;5062393;28;20095;-74
2022/02/16 08:11:40;;;;;;;43.80;22.98;;;;;;;5.91;57.75;94085.88;5061886;28;20235;-73
2022/02/16 08:14:06;;;;;;;43.75;24.38;;;;;;;5.81;58.35;94076.94;5062230;28;20020;-73
2022/02/16 08:16:33;;;;;;;58.55;25.80;;;;;;;5.90;57.99;94073.69;5062121;28;20021;-73
2022/02/16 08:18:58;;;;;;;71.20;25.02;;;;;;;5.92;58.04;94079.50;5061923;28;20372;-73
2022/02/16 08:21:24;;;;;;;54.75;22.92;;;;;;;6.05;57.92;94088.69;5062197;28;20091;-72
2022/02/16 08:23:49;;;;;;;51.05;23.20;;;;;;;6.14;57.09;94081.72;5062438;28;20036;-73
2022/02/16 08:26:15;;;;;;;47.60;24.20;;;;;;;6.19;56.80;94090.41;5062109;28;20104;-72
2022/02/16 08:28:40;;;;;;;53.28;24.63;;;;;;;6.26;57.45;94089.28;5062178;28;20257;-73
2022/02/16 08:31:06;;;;;;;47.42;24.88;;;;;;;6.39;57.04;94093.91;5062052;28;20240;-73
2022/02/16 08:33:32;;;;;;;48.03;23.77;;;;;;;6.48;56.54;94080.84;5062098;28;20082;-72
2022/02/16 08:35:57;;;;;;;55.22;24.45;;;;;;;6.58;56.63;94092.13;5062050;28;20020;-72
2022/02/16 08:38:22;;;;;;;49.88;22.83;;;;;;;6.72;55.94;94075.56;5061977;28;20203;-72
2022/02/16 08:40:48;;;;;;;46.33;23.58;;;;;;;6.84;55.52;94068.00;5061967;28;20078;-72
2022/02/16 08:43:14;;;;;;;43.88;23.00;;;;;;;6.92;55.13;94082.47;5063250;28;20205;-72
2022/02/16 08:45:41;;;;;;;54.90;22.33;;;;;;;6.97;55.27;94072.59;5065748;28;20052;-72
2022/02/16 08:48:07;;;;;;;55.95;25.73;;;;;;;7.11;54.75;94071.91;5065914;28;20308;-73
2022/02/16 08:50:33;;;;;;;58.95;24.08;;;;;;;7.18;54.88;94072.31;5065927;28;20025;-73
2022/02/16 08:52:58;;;;;;;54.50;24.23;;;;;;;7.30;54.45;94067.38;5065820;28;20025;-72
2022/02/16 08:55:23;;;;;;;66.90;24.70;;;;;;;7.47;53.90;94074.03;5065956;28;20020;-75
2022/02/16 08:57:49;;;;;;;58.65;24.30;;;;;;;7.58;54.08;94043.63;5065970;28;20028;-76
2022/02/16 09:00:15;;;;;;;48.08;25.35;;;;;;;7.69;53.81;94054.88;5066008;28;20040;-76
2022/02/16 09:02:40;;;;;;;49.40;25.10;;;;;;;7.83;53.24;94053.84;5065690;28;20027;-74
2022/02/16 09:05:07;;;;;;;65.47;25.45;;;;;;;7.89;53.00;94043.16;5065558;28;20025;-75
2022/02/16 09:07:32;;;;;;;47.25;21.90;;;;;;;8.02;52.74;94061.75;5065859;28;20301;-73
2022/02/16 09:10:06;;;;;;;46.38;21.35;;;;;;;7.96;52.96;94043.56;5065602;28;20017;-75
2022/02/16 09:12:32;;;;;;;66.50;22.25;;;;;;;8.00;53.19;94052.53;5065139;28;20040;-74
2022/02/16 09:14:58;;;;;;;52.65;21.27;;;;;;;8.13;52.60;94040.34;5065754;28;20066;-73
2022/02/16 09:17:24;;;;;;;38.42;18.50;;;;;;;8.07;51.50;94046.84;5065580;28;20021;-75
2022/02/16 09:19:55;;;;;;;37.42;17.20;;;;;;;8.26;51.90;94038.78;5065547;28;20052;-75
2022/02/16 09:22:22;;;;;;;39.85;16.27;;;;;;;8.17;50.66;94050.09;5065431;28;20025;-74
2022/02/16 09:24:48;;;;;;;33.72;16.45;;;;;;;8.37;50.50;94035.66;5065381;28;20096;-74
2022/02/16 09:27:15;;;;;;;33.28;15.65;;;;;;;8.49;49.95;94045.84;5065314;28;20185;-72
2022/02/16 09:29:41;;;;;;;38.92;18.38;;;;;;;8.69;49.69;94044.66;5065322;28;20021;-72
2022/02/16 09:32:07;;;;;;;40.55;20.15;;;;;;;8.85;49.60;94037.13;5065096;28;20016;-73
2022/02/16 09:34:32;;;;;;;36.50;17.90;;;;;;;8.85;49.39;94037.13;5065288;28;20193;-71
2022/02/16 09:36:58;;;;;;;35.88;17.33;;;;;;;9.10;49.04;94043.00;5065283;28;20055;-72
2022/02/16 09:39:24;;;;;;;43.25;18.92;;;;;;;9.28;48.66;94036.78;5065359;28;20036;-73
2022/02/16 09:41:49;;;;;;;46.40;16.92;;;;;;;9.46;47.59;94029.72;5065039;28;20017;-73
2022/02/16 09:44:24;;;;;;;37.65;16.70;;;;;;;9.40;46.71;94030.91;5064960;28;20211;-73
2022/02/16 09:46:50;;;;;;;47.78;20.35;;;;;;;9.53;47.17;94035.41;5064904;28;20032;-73
2022/02/16 09:49:16;;;;;;;52.58;18.35;;;;;;;9.42;47.77;94018.09;5064809;28;20054;-73
2022/02/16 09:51:42;;;;;;;40.38;18.83;;;;;;;9.50;47.76;94020.03;5064491;28;20036;-73
2022/02/16 09:54:08;;;;;;;56.97;20.25;;;;;;;9.68;47.10;94010.31;5064128;28;20075;-74
2022/02/16 09:56:33;;;;;;;48.50;19.65;;;;;;;9.89;46.87;94015.13;5064802;28;20043;-74
2022/02/16 09:59:00;;;;;;;41.78;20.77;;;;;;;9.97;46.70;94020.53;5063480;28;20044;-74
2022/02/16 10:01:26;;;;;;;39.60;19.38;;;;;;;9.86;46.47;94021.84;5064379;28;20067;-74
2022/02/16 10:04:11;;;;;;;50.17;21.27;;;;;;;10.01;47.03;94016.16;5064471;28;20025;-73
2022/02/16 10:06:40;;;;;;;48.97;23.67;;;;;;;9.97;46.85;94017.06;5064105;28;20192;-74
2022/02/16 10:09:06;;;;;;;44.08;21.98;;;;;;;10.07;46.40;94016.78;5064397;28;20020;-74
2022/02/16 10:11:33;;;;;;;49.17;23.08;;;;;;;10.11;46.45;94011.66;5064331;28;20037;-73
2022/02/16 10:14:24;;;;;;;56.72;23.17;;;;;;;10.28;46.64;94008.28;5064276;28;20047;-73
2022/02/16 10:16:50;;;;;;;38.28;20.83;;;;;;;10.49;45.55;94004.00;5064039;28;20055;-73
2022/02/16 10:19:17;;;;;;;61.67;22.90;;;;;;;10.61;45.51;93990.09;5064360;28;20445;-73
2022/02/16 10:22:00;;;;;;;48.38;24.33;;;;;;;10.70;46.05;93995.44;5064316;28;20028;-74
2022/02/16 10:24:26;;;;;;;57.22;22.80;;;;;;;10.87;47.74;94005.34;5063102;28;20266;-74
2022/02/16 10:26:53;;;;;;;70.70;24.02;;;;;;;10.99;44.43;93977.00;5064344;28;20024;-74
2022/02/16 10:29:21;;;;;;;65.20;24.15;;;;;;;10.92;44.89;93973.22;5064269;28;20291;-73
2022/02/16 10:31:47;;;;;;;54.72;23.58;;;;;;;10.95;44.37;93984.06;5064129;28;20327;-74
2022/02/16 10:34:12;;;;;;;50.17;24.60;;;;;;;10.98;44.47;93982.66;5064204;28;20048;-74
2022/02/16 10:36:38;;;;;;;53.88;24.38;;;;;;;11.08;44.61;93962.88;5064261;28;20211;-74
2022/02/16 10:39:06;;;;;;;61.35;24.08;;;;;;;11.28;44.97;93964.16;5064066;28;20021;-74
2022/02/16 10:41:46;;;;;;;58.15;25.00;;;;;;;11.42;43.66;93962.09;5063942;28;20042;-74
2022/02/16 10:44:40;;;;;;;62.42;25.25;;;;;;;11.45;43.10;93962.25;5063852;28;20033;-73
2022/02/16 10:47:12;;;;;;;70.57;27.83;;;;;;;11.31;43.45;93939.50;5063004;28;20033;-73
2022/02/16 10:49:39;;;;;;;59.83;26.00;;;;;;;11.37;44.68;93946.25;5062481;28;20262;-73
2022/02/16 10:52:16;;;;;;;58.97;27.35;;;;;;;11.49;43.50;93933.03;5063426;28;20032;-73
2022/02/16 10:54:57;;;;;;;57.63;25.50;;;;;;;11.48;43.68;93934.16;5063475;28;20017;-73
2022/02/16 10:57:22;;;;;;;48.50;23.48;;;;;;;11.61;43.60;93911.03;5062486;28;20278;-74
2022/02/16 10:59:48;;;;;;;39.47;20.35;;;;;;;11.73;42.73;93915.72;5063521;28;20021;-73
2022/02/16 11:02:16;;;;;;;55.05;23.17;;;;;;;11.94;42.86;93918.50;5063550;28;20088;-73
2022/02/16 11:04:46;;;;;;;40.70;21.63;;;;;;;11.92;42.01;93910.03;5063370;28;20047;-74
2022/02/16 11:07:12;;;;;;;47.80;22.85;;;;;;;12.10;41.13;93905.41;5062580;28;20029;-74
2022/02/16 11:09:42;;;;;;;44.70;22.55;;;;;;;12.16;41.44;93904.13;5063435;28;20075;-73
2022/02/16 11:12:07;;;;;;;54.55;20.63;;;;;;;12.34;41.51;93889.59;5063381;28;20049;-73
2022/02/16 11:14:35;;;;;;;34.85;17.63;;;;;;;12.62;40.18;93889.13;5063362;28;20028;-73
2022/02/16 11:17:01;;;;;;;32.92;15.48;;;;;;;12.85;40.07;93889.56;5063374;28;20021;-73
2022/02/16 11:19:38;;;;;;;28.30;15.50;;;;;;;13.12;39.98;93874.88;5063316;28;20021;-73
2022/02/16 11:22:13;;;;;;;34.83;15.35;;;;;;;13.41;39.11;93874.03;5063159;28;20092;-73